Weather at Deming Municipal Airport

Public forecast

Using degrees Fahrenheit for public forecast. Weather courtesy of forecast.io.

Current aviation weather report (METAR) for Deming Municipal Airport

Retrieved 2021/06/22 13:53 UTC (60 minutes ago):

KDMN 221353Z AUTO 06009KT 10SM CLR 23/13 A3010 RMK AO2 SLP108 T02330133

Aviation forecast (TAF) for Deming Municipal Airport

Retrieved 2021/06/22 12:22 UTC (3 hours ago):

TAF KDMN 221120Z 2212/2312 05007KT P6SM FEW250 FM221700 14008KT P6SM FEW250 FM222200 26012G22KT P6SM FEW120 BKN250 FM230400 21006KT P6SM BKN250